sensor_id;sensor_type;location;lat;lon;timestamp;pressure;altitude;pressure_sealevel;temperature;humidity
55038;BME280;40937;53.594;10.034;2022-11-12T00:02:23;79657.81;;;-147.20;71.96
55038;BME280;40937;53.594;10.034;2022-11-12T00:05:08;79663.88;;;-147.20;71.83
55038;BME280;40937;53.594;10.034;2022-11-12T00:07:54;79671.94;;;-147.20;71.73
55038;BME280;40937;53.594;10.034;2022-11-12T00:10:39;79667.91;;;-147.20;71.82
55038;BME280;40937;53.594;10.034;2022-11-12T00:13:26;79657.81;;;-147.20;71.68
55038;BME280;40937;53.594;10.034;2022-11-12T00:16:11;79669.94;;;-147.20;71.71
55038;BME280;40937;53.594;10.034;2022-11-12T00:18:56;79671.94;;;-147.20;71.30
55038;BME280;40937;53.594;10.034;2022-11-12T00:21:42;79665.88;;;-147.20;71.50
55038;BME280;40937;53.594;10.034;2022-11-12T00:24:29;79669.94;;;-147.20;71.53
55038;BME280;40937;53.594;10.034;2022-11-12T00:27:16;79655.78;;;-147.20;71.44
55038;BME280;40937;53.594;10.034;2022-11-12T00:30:05;79663.88;;;-147.20;71.31
55038;BME280;40937;53.594;10.034;2022-11-12T00:32:51;79651.75;;;-147.20;71.11
55038;BME280;40937;53.594;10.034;2022-11-12T00:35:36;79653.78;;;-147.20;70.97
55038;BME280;40937;53.594;10.034;2022-11-12T00:38:22;79653.78;;;-147.20;70.41
55038;BME280;40937;53.594;10.034;2022-11-12T00:41:07;79659.81;;;-147.20;70.50
55038;BME280;40937;53.594;10.034;2022-11-12T00:43:52;79657.81;;;-147.20;70.23
55038;BME280;40937;53.594;10.034;2022-11-12T00:46:39;79663.88;;;-147.20;70.15
55038;BME280;40937;53.594;10.034;2022-11-12T00:49:24;79653.78;;;-147.20;70.12
55038;BME280;40937;53.594;10.034;2022-11-12T00:52:09;79665.88;;;-147.20;70.09
55038;BME280;40937;53.594;10.034;2022-11-12T00:54:55;79655.78;;;-147.20;70.13
55038;BME280;40937;53.594;10.034;2022-11-12T00:57:40;79657.81;;;-147.20;69.76
55038;BME280;40937;53.594;10.034;2022-11-12T01:00:25;79659.81;;;-147.20;69.90
55038;BME280;40937;53.594;10.034;2022-11-12T01:03:12;79663.88;;;-147.20;69.97
55038;BME280;40937;53.594;10.034;2022-11-12T01:06:01;79655.78;;;-147.20;69.83
55038;BME280;40937;53.594;10.034;2022-11-12T01:08:46;79659.81;;;-147.20;69.47
55038;BME280;40937;53.594;10.034;2022-11-12T01:11:32;79667.91;;;-147.20;69.55
55038;BME280;40937;53.594;10.034;2022-11-12T01:14:17;79657.81;;;-147.20;69.47
55038;BME280;40937;53.594;10.034;2022-11-12T01:17:03;79657.81;;;-147.20;69.10
55038;BME280;40937;53.594;10.034;2022-11-12T01:19:50;79659.81;;;-147.20;69.15
55038;BME280;40937;53.594;10.034;2022-11-12T01:22:36;79655.78;;;-147.20;68.74
55038;BME280;40937;53.594;10.034;2022-11-12T01:25:21;79653.78;;;-147.20;68.86
55038;BME280;40937;53.594;10.034;2022-11-12T01:28:06;79659.81;;;-147.20;68.92
55038;BME280;40937;53.594;10.034;2022-11-12T01:30:51;79657.81;;;-147.20;68.53
55038;BME280;40937;53.594;10.034;2022-11-12T01:33:37;79657.81;;;-147.20;68.44
55038;BME280;40937;53.594;10.034;2022-11-12T01:36:24;79655.78;;;-147.20;68.44
55038;BME280;40937;53.594;10.034;2022-11-12T01:39:10;79655.78;;;-147.20;68.24
55038;BME280;40937;53.594;10.034;2022-11-12T01:41:55;79655.78;;;-147.20;68.05
55038;BME280;40937;53.594;10.034;2022-11-12T01:44:43;79659.81;;;-147.20;67.95
55038;BME280;40937;53.594;10.034;2022-11-12T01:47:31;79661.84;;;-147.20;67.85
55038;BME280;40937;53.594;10.034;2022-11-12T01:50:22;79665.88;;;-147.20;67.76
55038;BME280;40937;53.594;10.034;2022-11-12T01:53:11;79671.94;;;-147.20;67.83
55038;BME280;40937;53.594;10.034;2022-11-12T01:55:59;79678.00;;;-147.20;68.04
55038;BME280;40937;53.594;10.034;2022-11-12T01:58:45;79669.94;;;-147.20;67.65
55038;BME280;40937;53.594;10.034;2022-11-12T02:01:30;79665.88;;;-147.20;67.48
55038;BME280;40937;53.594;10.034;2022-11-12T02:04:16;79667.91;;;-147.20;67.47
55038;BME280;40937;53.594;10.034;2022-11-12T02:07:02;79669.94;;;-147.20;67.31
55038;BME280;40937;53.594;10.034;2022-11-12T02:09:51;79659.81;;;-147.20;67.43
55038;BME280;40937;53.594;10.034;2022-11-12T02:12:37;79663.88;;;-147.20;67.08
55038;BME280;40937;53.594;10.034;2022-11-12T02:15:40;79651.75;;;-147.20;67.05
55038;BME280;40937;53.594;10.034;2022-11-12T02:18:26;79655.78;;;-147.20;67.01
55038;BME280;40937;53.594;10.034;2022-11-12T02:21:11;79657.81;;;-147.20;66.74
55038;BME280;40937;53.594;10.034;2022-11-12T02:24:00;79655.78;;;-147.20;66.72
55038;BME280;40937;53.594;10.034;2022-11-12T02:26:49;79643.66;;;-147.20;66.62
55038;BME280;40937;53.594;10.034;2022-11-12T02:29:35;79637.59;;;-147.20;66.40
55038;BME280;40937;53.594;10.034;2022-11-12T02:32:29;79645.69;;;-147.20;66.36
55038;BME280;40937;53.594;10.034;2022-11-12T02:35:14;79639.63;;;-147.20;66.22
55038;BME280;40937;53.594;10.034;2022-11-12T02:37:59;79651.75;;;-147.20;66.19
55038;BME280;40937;53.594;10.034;2022-11-12T02:40:46;79645.69;;;-147.20;66.04
55038;BME280;40937;53.594;10.034;2022-11-12T02:43:32;79643.66;;;-147.20;65.93
55038;BME280;40937;53.594;10.034;2022-11-12T02:46:18;79655.78;;;-147.20;66.17
55038;BME280;40937;53.594;10.034;2022-11-12T02:49:03;79669.94;;;-147.20;66.21
55038;BME280;40937;53.594;10.034;2022-11-12T02:51:48;79676.00;;;-147.20;66.11
55038;BME280;40937;53.594;10.034;2022-11-12T02:54:34;79676.00;;;-147.20;66.20
55038;BME280;40937;53.594;10.034;2022-11-12T02:57:20;79688.09;;;-147.20;66.44
55038;BME280;40937;53.594;10.034;2022-11-12T03:00:09;79702.25;;;-147.20;66.43
55038;BME280;40937;53.594;10.034;2022-11-12T03:02:55;79690.13;;;-147.20;66.31
55038;BME280;40937;53.594;10.034;2022-11-12T03:05:44;79692.16;;;-147.20;66.37
55038;BME280;40937;53.594;10.034;2022-11-12T03:08:29;79692.16;;;-147.20;66.40
55038;BME280;40937;53.594;10.034;2022-11-12T03:11:16;79704.25;;;-147.20;66.54
55038;BME280;40937;53.594;10.034;2022-11-12T03:14:02;79718.41;;;-147.20;66.70
55038;BME280;40937;53.594;10.034;2022-11-12T03:16:47;79714.38;;;-147.20;66.64
55038;BME280;40937;53.594;10.034;2022-11-12T03:19:33;79724.47;;;-147.20;66.56
55038;BME280;40937;53.594;10.034;2022-11-12T03:22:18;79724.47;;;-147.20;66.72
55038;BME280;40937;53.594;10.034;2022-11-12T03:25:04;79722.44;;;-147.20;67.05
55038;BME280;40937;53.594;10.034;2022-11-12T03:27:56;79732.53;;;-147.20;67.13
55038;BME280;40937;53.594;10.034;2022-11-12T03:30:43;79746.69;;;-147.20;67.04
55038;BME280;40937;53.594;10.034;2022-11-12T03:33:28;79746.69;;;-147.20;67.12
55038;BME280;40937;53.594;10.034;2022-11-12T03:36:14;79740.63;;;-147.20;67.28
55038;BME280;40937;53.594;10.034;2022-11-12T03:38:59;79744.66;;;-147.20;67.55
55038;BME280;40937;53.594;10.034;2022-11-12T03:41:44;79746.69;;;-147.20;67.69
55038;BME280;40937;53.594;10.034;2022-11-12T03:44:30;79734.56;;;-147.20;67.70
55038;BME280;40937;53.594;10.034;2022-11-12T03:47:16;79756.78;;;-147.20;68.09
55038;BME280;40937;53.594;10.034;2022-11-12T03:50:02;79758.81;;;-147.20;67.95
55038;BME280;40937;53.594;10.034;2022-11-12T03:52:48;79756.78;;;-147.20;67.88
55038;BME280;40937;53.594;10.034;2022-11-12T03:55:34;79772.94;;;-147.20;68.21
55038;BME280;40937;53.594;10.034;2022-11-12T03:58:19;79779.00;;;-147.20;68.46
55038;BME280;40937;53.594;10.034;2022-11-12T04:01:04;79781.03;;;-147.20;68.76
55038;BME280;40937;53.594;10.034;2022-11-12T04:03:51;79772.94;;;-147.20;68.61
55038;BME280;40937;53.594;10.034;2022-11-12T04:06:36;79805.25;;;-147.20;69.19
55038;BME280;40937;53.594;10.034;2022-11-12T04:09:39;79797.19;;;-147.20;69.02
55038;BME280;40937;53.594;10.034;2022-11-12T04:12:25;79803.25;;;-147.20;69.05
55038;BME280;40937;53.594;10.034;2022-11-12T04:15:27;79825.47;;;-147.20;69.40
55038;BME280;40937;53.594;10.034;2022-11-12T04:18:13;79825.47;;;-147.20;69.27
55038;BME280;40937;53.594;10.034;2022-11-12T04:21:16;79825.47;;;-147.20;69.61
55038;BME280;40937;53.594;10.034;2022-11-12T04:24:22;79821.44;;;-147.20;69.77
55038;BME280;40937;53.594;10.034;2022-11-12T04:27:27;79837.59;;;-147.20;69.92
55038;BME280;40937;53.594;10.034;2022-11-12T04:30:13;79837.59;;;-147.20;69.67
55038;BME280;40937;53.594;10.034;2022-11-12T04:32:59;79841.63;;;-147.20;69.75
55038;BME280;40937;53.594;10.034;2022-11-12T04:35:45;79853.75;;;-147.20;69.87
55038;BME280;40937;53.594;10.034;2022-11-12T04:38:31;79855.75;;;-147.20;69.47
55038;BME280;40937;53.594;10.034;2022-11-12T04:41:17;79855.75;;;-147.20;69.50
55038;BME280;40937;53.594;10.034;2022-11-12T04:44:19;79861.81;;;-147.20;69.85
55038;BME280;40937;53.594;10.034;2022-11-12T04:47:33;79865.88;;;-147.20;70.11
55038;BME280;40937;53.594;10.034;2022-11-12T04:50:18;79880.00;;;-147.20;70.33
55038;BME280;40937;53.594;10.034;2022-11-12T04:53:04;79877.97;;;-147.20;70.03
55038;BME280;40937;53.594;10.034;2022-11-12T04:55:51;79886.06;;;-147.20;70.05
55038;BME280;40937;53.594;10.034;2022-11-12T04:58:37;79886.06;;;-147.20;69.94
55038;BME280;40937;53.594;10.034;2022-11-12T05:01:22;79898.19;;;-147.20;70.18
55038;BME280;40937;53.594;10.034;2022-11-12T05:04:07;79904.25;;;-147.20;70.32
55038;BME280;40937;53.594;10.034;2022-11-12T05:06:53;79906.25;;;-147.20;70.35
55038;BME280;40937;53.594;10.034;2022-11-12T05:09:39;79906.25;;;-147.20;70.41
55038;BME280;40937;53.594;10.034;2022-11-12T05:12:25;79896.16;;;-147.20;70.29
55038;BME280;40937;53.594;10.034;2022-11-12T05:15:10;79908.28;;;-147.20;70.11
55038;BME280;40937;53.594;10.034;2022-11-12T05:17:56;79902.22;;;-147.20;69.56
55038;BME280;40937;53.594;10.034;2022-11-12T05:20:41;79900.22;;;-147.20;69.34
55038;BME280;40937;53.594;10.034;2022-11-12T05:23:26;79912.31;;;-147.20;69.89
55038;BME280;40937;53.594;10.034;2022-11-12T05:26:12;79918.38;;;-147.20;70.16
55038;BME280;40937;53.594;10.034;2022-11-12T05:28:58;79930.50;;;-147.20;69.84
55038;BME280;40937;53.594;10.034;2022-11-12T05:32:01;79924.44;;;-147.20;69.48
55038;BME280;40937;53.594;10.034;2022-11-12T05:34:55;79914.34;;;-147.20;69.33
55038;BME280;40937;53.594;10.034;2022-11-12T05:38:00;79934.53;;;-147.20;69.95
55038;BME280;40937;53.594;10.034;2022-11-12T05:40:53;79940.59;;;-147.20;70.38
55038;BME280;40937;53.594;10.034;2022-11-12T05:43:52;79950.72;;;-147.20;70.04
55038;BME280;40937;53.594;10.034;2022-11-12T05:47:16;79954.75;;;-147.20;69.88
55038;BME280;40937;53.594;10.034;2022-11-12T05:50:11;79960.81;;;-147.20;70.06
55038;BME280;40937;53.594;10.034;2022-11-12T05:53:22;79962.81;;;-147.20;70.51
55038;BME280;40937;53.594;10.034;2022-11-12T05:56:14;79972.94;;;-147.20;70.75
55038;BME280;40937;53.594;10.034;2022-11-12T05:59:00;79991.09;;;-147.20;71.19
55038;BME280;40937;53.594;10.034;2022-11-12T06:01:54;79976.97;;;-147.20;70.52
55038;BME280;40937;53.594;10.034;2022-11-12T06:04:52;79991.09;;;-147.20;70.61
55038;BME280;40937;53.594;10.034;2022-11-12T06:07:40;79999.19;;;-147.20;70.94
55038;BME280;40937;53.594;10.034;2022-11-12T06:10:47;79991.09;;;-147.20;70.60
55038;BME280;40937;53.594;10.034;2022-11-12T06:13:40;80017.38;;;-147.20;70.98
55038;BME280;40937;53.594;10.034;2022-11-12T06:16:46;80019.38;;;-147.20;70.77
55038;BME280;40937;53.594;10.034;2022-11-12T06:20:07;80029.50;;;-147.20;70.97
55038;BME280;40937;53.594;10.034;2022-11-12T06:23:02;80035.56;;;-147.20;71.07
55038;BME280;40937;53.594;10.034;2022-11-12T06:29:04;80037.56;;;-147.20;70.86
55038;BME280;40937;53.594;10.034;2022-11-12T06:31:49;80029.50;;;-147.20;70.38
55038;BME280;40937;53.594;10.034;2022-11-12T06:34:35;80041.59;;;-147.20;70.73
55038;BME280;40937;53.594;10.034;2022-11-12T06:37:20;80045.66;;;-147.20;70.86
55038;BME280;40937;53.594;10.034;2022-11-12T06:40:08;80053.72;;;-147.20;71.01
55038;BME280;40937;53.594;10.034;2022-11-12T06:42:56;80059.78;;;-147.20;71.03
55038;BME280;40937;53.594;10.034;2022-11-12T06:45:42;80051.72;;;-147.20;71.03
55038;BME280;40937;53.594;10.034;2022-11-12T06:48:28;80059.78;;;-147.20;70.95
55038;BME280;40937;53.594;10.034;2022-11-12T06:51:15;80067.88;;;-147.20;70.65
55038;BME280;40937;53.594;10.034;2022-11-12T06:54:00;80071.91;;;-147.20;70.33
55038;BME280;40937;53.594;10.034;2022-11-12T06:56:47;80073.94;;;-147.20;70.55
55038;BME280;40937;53.594;10.034;2022-11-12T06:59:32;80080.00;;;-147.20;70.40
55038;BME280;40937;53.594;10.034;2022-11-12T07:02:18;80084.03;;;-147.20;70.35
55038;BME280;40937;53.594;10.034;2022-11-12T07:05:04;80084.03;;;-147.20;70.21
55038;BME280;40937;53.594;10.034;2022-11-12T07:07:49;80075.94;;;-147.20;69.98
55038;BME280;40937;53.594;10.034;2022-11-12T07:10:34;80082.00;;;-147.20;70.01
55038;BME280;40937;53.594;10.034;2022-11-12T07:13:21;80084.03;;;-147.20;69.79
55038;BME280;40937;53.594;10.034;2022-11-12T07:16:07;80086.06;;;-147.20;69.65
55038;BME280;40937;53.594;10.034;2022-11-12T07:18:53;80106.25;;;-147.20;69.82
55038;BME280;40937;53.594;10.034;2022-11-12T07:21:38;80100.19;;;-147.20;69.76
55038;BME280;40937;53.594;10.034;2022-11-12T07:24:24;80110.28;;;-147.20;69.96
55038;BME280;40937;53.594;10.034;2022-11-12T07:27:09;80118.38;;;-147.20;69.95
55038;BME280;40937;53.594;10.034;2022-11-12T07:29:56;80130.50;;;-147.20;69.99
55038;BME280;40937;53.594;10.034;2022-11-12T07:32:41;80122.41;;;-147.20;70.04
55038;BME280;40937;53.594;10.034;2022-11-12T07:35:26;80126.47;;;-147.20;69.83
55038;BME280;40937;53.594;10.034;2022-11-12T07:38:12;80124.44;;;-147.20;70.03
55038;BME280;40937;53.594;10.034;2022-11-12T07:40:59;80114.34;;;-147.20;69.74
55038;BME280;40937;53.594;10.034;2022-11-12T07:43:47;80116.34;;;-147.20;69.74
55038;BME280;40937;53.594;10.034;2022-11-12T07:46:36;80114.34;;;-147.20;69.74
55038;BME280;40937;53.594;10.034;2022-11-12T07:49:21;80114.34;;;-147.20;69.88
55038;BME280;40937;53.594;10.034;2022-11-12T07:52:07;80114.34;;;-147.20;69.60
55038;BME280;40937;53.594;10.034;2022-11-12T07:54:53;80108.28;;;-147.20;69.79
55038;BME280;40937;53.594;10.034;2022-11-12T07:57:39;80098.19;;;-147.20;69.73
55038;BME280;40937;53.594;10.034;2022-11-12T08:00:25;80110.28;;;-147.20;69.67
55038;BME280;40937;53.594;10.034;2022-11-12T08:03:12;80118.38;;;-147.20;69.65
55038;BME280;40937;53.594;10.034;2022-11-12T08:05:58;80108.28;;;-147.20;69.77
55038;BME280;40937;53.594;10.034;2022-11-12T08:08:44;80092.13;;;-147.20;69.62
55038;BME280;40937;53.594;10.034;2022-11-12T08:11:31;80110.28;;;-147.20;69.64
55038;BME280;40937;53.594;10.034;2022-11-12T08:14:17;80106.25;;;-147.20;69.69
55038;BME280;40937;53.594;10.034;2022-11-12T08:17:03;80100.19;;;-147.20;69.47
55038;BME280;40937;53.594;10.034;2022-11-12T08:19:50;80092.13;;;-147.20;69.70
55038;BME280;40937;53.594;10.034;2022-11-12T08:22:38;80090.09;;;-147.20;69.56
55038;BME280;40937;53.594;10.034;2022-11-12T08:25:23;80092.13;;;-147.20;69.66
55038;BME280;40937;53.594;10.034;2022-11-12T08:28:09;80088.06;;;-147.20;69.30
55038;BME280;40937;53.594;10.034;2022-11-12T08:30:55;80100.19;;;-147.20;69.39
55038;BME280;40937;53.594;10.034;2022-11-12T08:33:42;80092.13;;;-147.20;69.56
55038;BME280;40937;53.594;10.034;2022-11-12T08:36:29;80082.00;;;-147.20;69.55
55038;BME280;40937;53.594;10.034;2022-11-12T08:39:14;80077.97;;;-147.20;69.46
55038;BME280;40937;53.594;10.034;2022-11-12T08:42:00;80082.00;;;-147.20;69.26
55038;BME280;40937;53.594;10.034;2022-11-12T08:44:45;80075.94;;;-147.20;69.22
55038;BME280;40937;53.594;10.034;2022-11-12T08:47:31;80067.88;;;-147.20;69.00
55038;BME280;40937;53.594;10.034;2022-11-12T08:50:16;80069.91;;;-147.20;68.80
55038;BME280;40937;53.594;10.034;2022-11-12T08:53:06;80080.00;;;-147.20;68.54
55038;BME280;40937;53.594;10.034;2022-11-12T08:55:52;80063.84;;;-147.20;68.24
55038;BME280;40937;53.594;10.034;2022-11-12T08:58:37;80055.75;;;-147.20;67.89
55038;BME280;40937;53.594;10.034;2022-11-12T09:01:23;80057.78;;;-147.20;67.62
55038;BME280;40937;53.594;10.034;2022-11-12T09:04:08;80055.75;;;-147.20;67.51
55038;BME280;40937;53.594;10.034;2022-11-12T09:06:53;80047.66;;;-147.20;67.38
55038;BME280;40937;53.594;10.034;2022-11-12T09:09:40;80041.59;;;-147.20;67.27
55038;BME280;40937;53.594;10.034;2022-11-12T09:12:25;80035.56;;;-147.20;67.25
55038;BME280;40937;53.594;10.034;2022-11-12T09:15:10;80035.56;;;-147.20;67.04
55038;BME280;40937;53.594;10.034;2022-11-12T09:17:56;80033.53;;;-147.20;66.76
55038;BME280;40937;53.594;10.034;2022-11-12T09:20:41;80025.44;;;-147.20;66.60
55038;BME280;40937;53.594;10.034;2022-11-12T09:23:26;80021.41;;;-147.20;66.68
55038;BME280;40937;53.594;10.034;2022-11-12T09:26:14;80015.34;;;-147.20;66.39
55038;BME280;40937;53.594;10.034;2022-11-12T09:28:59;80007.28;;;-147.20;66.31
55038;BME280;40937;53.594;10.034;2022-11-12T09:31:45;79843.66;;;-147.20;81.76
55038;BME280;40937;53.594;10.034;2022-11-12T09:34:30;79758.81;;;-147.20;77.81
55038;BME280;40937;53.594;10.034;2022-11-12T09:37:15;79829.50;;;-147.20;63.20
55038;BME280;40937;53.594;10.034;2022-11-12T09:40:01;79867.88;;;-147.20;63.58
55038;BME280;40937;53.594;10.034;2022-11-12T09:42:50;79886.06;;;-147.20;63.87
55038;BME280;40937;53.594;10.034;2022-11-12T09:45:36;79898.19;;;-147.20;63.81
55038;BME280;40937;53.594;10.034;2022-11-12T09:48:26;79912.31;;;-147.20;64.25
55038;BME280;40937;53.594;10.034;2022-11-12T09:51:20;79910.31;;;-147.20;64.34
55038;BME280;40937;53.594;10.034;2022-11-12T09:54:17;79900.22;;;-147.20;64.15
55038;BME280;40937;53.594;10.034;2022-11-12T09:57:07;79900.22;;;-147.20;64.10
55038;BME280;40937;53.594;10.034;2022-11-12T09:59:55;79906.25;;;-147.20;64.41
55038;BME280;40937;53.594;10.034;2022-11-12T10:02:44;79900.22;;;-147.20;64.35
55038;BME280;40937;53.594;10.034;2022-11-12T10:05:40;79894.16;;;-147.20;64.10
55038;BME280;40937;53.594;10.034;2022-11-12T10:08:36;79882.03;;;-147.20;64.01
55038;BME280;40937;53.594;10.034;2022-11-12T10:11:38;79877.97;;;-147.20;64.10
55038;BME280;40937;53.594;10.034;2022-11-12T10:14:58;79880.00;;;-147.20;63.90
55038;BME280;40937;53.594;10.034;2022-11-12T10:18:12;79873.94;;;-147.20;63.67
55038;BME280;40937;53.594;10.034;2022-11-12T10:21:08;79867.88;;;-147.20;63.58
55038;BME280;40937;53.594;10.034;2022-11-12T10:24:00;79857.78;;;-147.20;63.50
55038;BME280;40937;53.594;10.034;2022-11-12T10:26:47;79857.78;;;-147.20;63.47
55038;BME280;40937;53.594;10.034;2022-11-12T10:29:36;79853.75;;;-147.20;63.31
55038;BME280;40937;53.594;10.034;2022-11-12T10:32:26;79853.75;;;-147.20;63.24
55038;BME280;40937;53.594;10.034;2022-11-12T10:35:16;79849.72;;;-147.20;63.14
55038;BME280;40937;53.594;10.034;2022-11-12T10:38:05;79833.53;;;-147.20;62.98
55038;BME280;40937;53.594;10.034;2022-11-12T10:40:55;79829.50;;;-147.20;62.97
55038;BME280;40937;53.594;10.034;2022-11-12T10:43:52;79829.50;;;-147.20;62.90
55038;BME280;40937;53.594;10.034;2022-11-12T10:46:37;79817.38;;;-147.20;62.60
55038;BME280;40937;53.594;10.034;2022-11-12T10:49:25;79797.19;;;-147.20;62.20
55038;BME280;40937;53.594;10.034;2022-11-12T10:52:23;79791.13;;;-147.20;nan
55038;BME280;40937;53.594;10.034;2022-11-12T10:55:16;79793.16;;;-147.20;62.20
55038;BME280;40937;53.594;10.034;2022-11-12T10:58:12;79787.09;;;-147.20;62.57
55038;BME280;40937;53.594;10.034;2022-11-12T11:11:47;79718.41;;;-147.20;61.47
55038;BME280;40937;53.594;10.034;2022-11-12T11:14:33;79710.31;;;-147.20;61.17
55038;BME280;40937;53.594;10.034;2022-11-12T11:17:29;79684.06;;;-147.20;61.03
55038;BME280;40937;53.594;10.034;2022-11-12T11:20:18;79667.91;;;-147.20;60.68
55038;BME280;40937;53.594;10.034;2022-11-12T11:23:11;79657.81;;;-147.20;60.11
55038;BME280;40937;53.594;10.034;2022-11-12T11:26:14;79645.69;;;-147.20;59.93
55038;BME280;40937;53.594;10.034;2022-11-12T11:29:18;79629.53;;;-147.20;59.35
55038;BME280;40937;53.594;10.034;2022-11-12T11:32:10;79619.44;;;-147.20;58.93
55038;BME280;40937;53.594;10.034;2022-11-12T11:35:10;79609.34;;;-147.20;59.05
55038;BME280;40937;53.594;10.034;2022-11-12T11:38:15;79601.25;;;-147.20;59.00
55038;BME280;40937;53.594;10.034;2022-11-12T11:53:30;79568.94;;;-147.20;58.00
55038;BME280;40937;53.594;10.034;2022-11-12T11:56:41;79577.00;;;-147.20;58.22
55038;BME280;40937;53.594;10.034;2022-11-12T12:00:17;79570.94;;;-147.20;57.95
55038;BME280;40937;53.594;10.034;2022-11-12T12:07:27;79564.88;;;-147.20;57.64
55038;BME280;40937;53.594;10.034;2022-11-12T12:14:20;79564.88;;;-147.20;57.52
55038;BME280;40937;53.594;10.034;2022-11-12T12:17:39;79562.88;;;-147.20;57.60
55038;BME280;40937;53.594;10.034;2022-11-12T12:20:34;79564.88;;;-147.20;57.41
55038;BME280;40937;53.594;10.034;2022-11-12T12:23:26;79560.84;;;-147.20;57.67
55038;BME280;40937;53.594;10.034;2022-11-12T12:26:15;79560.84;;;-147.20;57.66
55038;BME280;40937;53.594;10.034;2022-11-12T12:29:06;79568.94;;;-147.20;57.93
55038;BME280;40937;53.594;10.034;2022-11-12T12:32:01;79564.88;;;-147.20;57.93
55038;BME280;40937;53.594;10.034;2022-11-12T12:34:54;79566.91;;;-147.20;58.00
55038;BME280;40937;53.594;10.034;2022-11-12T12:37:47;79564.88;;;-147.20;57.82
55038;BME280;40937;53.594;10.034;2022-11-12T12:40:42;79560.84;;;-147.20;57.90
55038;BME280;40937;53.594;10.034;2022-11-12T12:43:33;79560.84;;;-147.20;57.92
55038;BME280;40937;53.594;10.034;2022-11-12T12:46:23;79562.88;;;-147.20;58.02
55038;BME280;40937;53.594;10.034;2022-11-12T12:49:14;79562.88;;;-147.20;58.42
55038;BME280;40937;53.594;10.034;2022-11-12T12:52:00;79562.88;;;-147.20;58.40
55038;BME280;40937;53.594;10.034;2022-11-12T12:54:56;79560.84;;;-147.20;58.76
55038;BME280;40937;53.594;10.034;2022-11-12T12:57:41;79562.88;;;-147.20;58.96
55038;BME280;40937;53.594;10.034;2022-11-12T13:00:32;79562.88;;;-147.20;58.97
55038;BME280;40937;53.594;10.034;2022-11-12T13:03:45;79552.78;;;-147.20;59.04
55038;BME280;40937;53.594;10.034;2022-11-12T13:06:34;79548.72;;;-147.20;59.05
55038;BME280;40937;53.594;10.034;2022-11-12T13:09:24;79546.72;;;-147.20;59.17
55038;BME280;40937;53.594;10.034;2022-11-12T13:12:10;79546.72;;;-147.20;59.60
55038;BME280;40937;53.594;10.034;2022-11-12T13:15:13;79552.78;;;-147.20;59.52
55038;BME280;40937;53.594;10.034;2022-11-12T13:17:58;79552.78;;;-147.20;59.64
55038;BME280;40937;53.594;10.034;2022-11-12T13:21:09;79552.78;;;-147.20;59.47
55038;BME280;40937;53.594;10.034;2022-11-12T13:23:57;79463.91;;;-147.20;71.88
55038;BME280;40937;53.594;10.034;2022-11-12T13:26:54;79431.59;;;-147.20;60.83
55038;BME280;40937;53.594;10.034;2022-11-12T13:29:41;79443.69;;;-147.20;59.22
55038;BME280;40937;53.594;10.034;2022-11-12T13:32:35;79463.91;;;-147.20;58.41
55038;BME280;40937;53.594;10.034;2022-11-12T13:35:29;79471.97;;;-147.20;58.42
55038;BME280;40937;53.594;10.034;2022-11-12T13:38:18;79480.06;;;-147.20;58.39
55038;BME280;40937;53.594;10.034;2022-11-12T13:41:10;79494.19;;;-147.20;58.59
55038;BME280;40937;53.594;10.034;2022-11-12T13:43:57;79494.19;;;-147.20;58.88
55038;BME280;40937;53.594;10.034;2022-11-12T13:46:43;79492.19;;;-147.20;58.98
55038;BME280;40937;53.594;10.034;2022-11-12T13:49:30;79496.22;;;-147.20;58.94
55038;BME280;40937;53.594;10.034;2022-11-12T15:29:00;79643.66;;;-147.20;62.25
55038;BME280;40937;53.594;10.034;2022-11-12T15:31:47;79633.56;;;-147.20;62.68
55038;BME280;40937;53.594;10.034;2022-11-12T15:34:43;79633.56;;;-147.20;62.69
55038;BME280;40937;53.594;10.034;2022-11-12T15:37:32;79645.69;;;-147.20;62.64
55038;BME280;40937;53.594;10.034;2022-11-12T15:40:20;79649.72;;;-147.20;62.84
55038;BME280;40937;53.594;10.034;2022-11-12T15:43:11;79669.94;;;-147.20;63.37
55038;BME280;40937;53.594;10.034;2022-11-12T15:46:00;79680.03;;;-147.20;63.79
55038;BME280;40937;53.594;10.034;2022-11-12T15:48:45;79690.13;;;-147.20;64.17
55038;BME280;40937;53.594;10.034;2022-11-12T15:51:31;79692.16;;;-147.20;64.28
55038;BME280;40937;53.594;10.034;2022-11-12T15:54:16;79698.22;;;-147.20;64.76
55038;BME280;40937;53.594;10.034;2022-11-12T15:57:02;79702.25;;;-147.20;64.99
55038;BME280;40937;53.594;10.034;2022-11-12T15:59:52;79712.34;;;-147.20;65.44
55038;BME280;40937;53.594;10.034;2022-11-12T16:02:39;79714.38;;;-147.20;65.61
55038;BME280;40937;53.594;10.034;2022-11-12T16:05:25;79718.41;;;-147.20;65.75
55038;BME280;40937;53.594;10.034;2022-11-12T16:08:11;79728.50;;;-147.20;66.00
55038;BME280;40937;53.594;10.034;2022-11-12T16:10:56;79730.53;;;-147.20;65.83
55038;BME280;40937;53.594;10.034;2022-11-12T16:13:43;79732.53;;;-147.20;66.05
55038;BME280;40937;53.594;10.034;2022-11-12T16:16:30;79726.50;;;-147.20;65.75
55038;BME280;40937;53.594;10.034;2022-11-12T16:19:16;79734.56;;;-147.20;65.67
55038;BME280;40937;53.594;10.034;2022-11-12T16:22:02;79756.78;;;-147.20;66.01
55038;BME280;40937;53.594;10.034;2022-11-12T16:24:54;79750.72;;;-147.20;65.80
55038;BME280;40937;53.594;10.034;2022-11-12T16:27:40;79752.75;;;-147.20;65.78
55038;BME280;40937;53.594;10.034;2022-11-12T16:30:27;79750.72;;;-147.20;65.73
55038;BME280;40937;53.594;10.034;2022-11-12T16:33:13;79760.81;;;-147.20;66.14
55038;BME280;40937;53.594;10.034;2022-11-12T16:35:59;79770.94;;;-147.20;66.07